Terminal Aerodrome Forecast
Issued by NWS Mt. Holly, NJ

Home | Current Version | Previous Version | Text Only | Print | Product List | Glossary On
Versions: 1 2 3 4 5 6 7 8 9 10 11 12 13 14 15 16 17 18 19 20 21 22
925
FTUS41 KPHI 150535
TAFILG
TAF
KILG 150535Z 1506/1606 33007KT P6SM SCT150
     FM151700 VRB02KT P6SM OVC030
      TEMPO 1519/1523 3SM -SN BR
     FM160000 25005KT P6SM SCT060=

USA.gov is the U.S. government's official web portal to all federal, state and local government web resources and services.